Time;durP1;ratioP1;P1;durP2;ratioP2;P2;SDS_P1;SDS_P2;PMS_P1;PMS_P2;Temp;Humidity;BMP_temperature;BMP_pressure;BME280_temperature;BME280_humidity;BME280_pressure;Samples;Min_cycle;Max_cycle;Signal;HPM_P1;HPM_P2
2021/07/21 00:00:45;;;;;;;5.07;3.30;;;17.00;78.00;;;;;;5093472;28;20028;-73
2021/07/21 00:03:10;;;;;;;4.53;3.20;;;16.90;78.20;;;;;;5091591;28;20020;-73
2021/07/21 00:05:38;;;;;;;6.20;3.42;;;16.90;78.30;;;;;;5093377;28;20028;-73
2021/07/21 00:08:04;;;;;;;4.10;2.97;;;16.90;78.40;;;;;;5093320;28;20028;-73
2021/07/21 00:10:31;;;;;;;4.35;3.10;;;16.90;78.40;;;;;;5093149;28;20419;-73
2021/07/21 00:16:12;;;;;;;4.00;2.90;;;16.80;78.80;;;;;;5092157;28;20030;-73
2021/07/21 00:18:47;;;;;;;5.13;2.92;;;16.80;79.00;;;;;;5092551;28;20036;-72
2021/07/21 00:21:15;;;;;;;5.15;3.58;;;16.70;79.20;;;;;;5093046;28;20469;-72
2021/07/21 00:23:41;;;;;;;4.53;3.28;;;16.70;79.30;;;;;;5092791;28;20024;-73
2021/07/21 00:26:07;;;;;;;6.20;3.60;;;16.60;79.30;;;;;;5092117;28;20028;-73
2021/07/21 00:28:34;;;;;;;4.82;3.17;;;16.60;79.40;;;;;;5093098;28;20035;-73
2021/07/21 00:31:01;;;;;;;5.43;3.42;;;16.60;79.50;;;;;;5091526;28;20492;-73
2021/07/21 00:33:26;;;;;;;4.78;3.53;;;16.50;79.60;;;;;;5092860;28;20477;-73
2021/07/21 00:35:52;;;;;;;5.45;4.03;;;16.50;79.70;;;;;;5091305;28;20024;-73
2021/07/21 00:38:17;;;;;;;4.93;3.53;;;16.50;79.90;;;;;;5092800;28;20081;-72
2021/07/21 00:40:43;;;;;;;4.63;2.90;;;16.50;80.00;;;;;;5092532;28;20048;-72
2021/07/21 00:43:09;;;;;;;5.70;3.92;;;16.40;80.10;;;;;;5091454;28;20477;-73
2021/07/21 00:45:35;;;;;;;8.60;3.85;;;16.40;80.40;;;;;;5091614;28;20016;-73
2021/07/21 00:48:00;;;;;;;5.97;3.70;;;16.40;80.60;;;;;;5091231;28;20043;-73
2021/07/21 00:50:27;;;;;;;5.50;3.72;;;16.30;80.70;;;;;;5092548;28;20504;-73
2021/07/21 00:52:53;;;;;;;5.13;3.60;;;16.30;80.90;;;;;;5092310;28;20397;-73
2021/07/21 00:55:19;;;;;;;5.03;3.55;;;16.30;81.10;;;;;;5092707;28;20115;-73
2021/07/21 00:57:45;;;;;;;6.05;3.90;;;16.30;81.20;;;;;;5091288;28;20128;-73
2021/07/21 01:00:14;;;;;;;4.65;3.40;;;16.20;81.30;;;;;;5091150;28;20027;-73
2021/07/21 01:02:40;;;;;;;4.03;3.30;;;16.10;81.50;;;;;;5092506;28;20031;-73
2021/07/21 01:05:14;;;;;;;4.47;3.03;;;16.10;81.70;;;;;;5092840;28;20038;-73
2021/07/21 01:07:45;;;;;;;4.90;3.55;;;16.10;81.90;;;;;;5092650;28;20028;-73
2021/07/21 01:10:11;;;;;;;4.97;3.78;;;16.00;82.00;;;;;;5079075;28;20028;-73
2021/07/21 01:13:00;;;;;;;6.85;4.60;;;16.00;82.70;;;;;;5092515;28;20027;-73
2021/07/21 01:15:34;;;;;;;5.40;3.63;;;16.00;82.30;;;;;;5088700;28;20595;-73
2021/07/21 01:18:09;;;;;;;5.82;3.67;;;16.00;82.40;;;;;;5092467;28;20043;-73
2021/07/21 01:21:00;;;;;;;6.88;4.20;;;16.00;82.60;;;;;;5090965;28;20024;-73
2021/07/21 01:23:42;;;;;;;5.22;4.40;;;15.90;82.60;;;;;;5091466;28;20038;-73
2021/07/21 01:26:09;;;;;;;5.90;4.07;;;15.80;83.00;;;;;;5079909;28;20055;-72
2021/07/21 01:28:37;;;;;;;5.93;4.32;;;15.80;83.20;;;;;;5091215;28;20081;-72
2021/07/21 01:31:06;;;;;;;6.68;4.22;;;15.80;83.50;;;;;;5078279;28;20024;-72
2021/07/21 01:33:35;;;;;;;7.80;4.72;;;15.80;83.70;;;;;;5090971;28;20024;-72
2021/07/21 01:36:05;;;;;;;5.60;4.17;;;15.70;83.80;;;;;;5091761;28;20024;-73
2021/07/21 01:38:37;;;;;;;6.03;4.47;;;15.70;84.00;;;;;;5096202;28;20028;-73
2021/07/21 01:41:12;;;;;;;6.32;4.55;;;15.60;84.30;;;;;;5094502;28;20047;-73
2021/07/21 01:43:41;;;;;;;7.43;4.72;;;15.60;84.60;;;;;;5096197;28;20031;-73
2021/07/21 01:46:07;;;;;;;6.40;4.80;;;15.60;84.80;;;;;;5095920;28;20036;-72
2021/07/21 01:48:36;;;;;;;6.53;4.78;;;15.60;85.00;;;;;;5095963;28;20027;-73
2021/07/21 01:51:06;;;;;;;6.82;4.75;;;15.60;85.20;;;;;;5095529;28;20081;-73
2021/07/21 01:53:36;;;;;;;8.10;4.97;;;15.60;85.40;;;;;;5094614;28;20024;-73
2021/07/21 01:56:03;;;;;;;6.22;4.50;;;15.60;85.60;;;;;;5095723;28;20100;-73
2021/07/21 01:58:29;;;;;;;7.88;4.82;;;15.50;85.60;;;;;;5095769;28;20024;-73
2021/07/21 02:00:56;;;;;;;8.93;4.68;;;15.40;85.90;;;;;;5094298;28;20024;-73
2021/07/21 02:03:23;;;;;;;6.22;4.38;;;15.40;86.10;;;;;;5095550;28;20020;-73
2021/07/21 02:05:53;;;;;;;4.78;3.88;;;15.40;86.30;;;;;;5095544;28;20023;-73
2021/07/21 02:08:20;;;;;;;5.57;3.90;;;15.40;86.50;;;;;;5094324;28;20020;-73
2021/07/21 02:10:47;;;;;;;6.35;4.25;;;15.30;86.60;;;;;;5094324;28;20047;-73
2021/07/21 02:13:15;;;;;;;6.13;4.05;;;15.30;86.90;;;;;;5095500;28;20481;-73
2021/07/21 02:15:42;;;;;;;6.45;4.78;;;15.30;87.00;;;;;;5094023;28;20021;-73
2021/07/21 02:18:09;;;;;;;7.07;4.63;;;15.30;87.10;;;;;;5095454;28;20385;-73
2021/07/21 02:20:35;;;;;;;5.05;3.97;;;15.30;87.30;;;;;;5093838;28;20115;-73
2021/07/21 02:23:01;;;;;;;4.93;3.83;;;15.30;87.40;;;;;;5095238;28;20529;-73
2021/07/21 02:25:27;;;;;;;5.63;3.90;;;15.30;87.60;;;;;;5095262;28;20024;-73
2021/07/21 02:27:54;;;;;;;5.65;3.95;;;15.30;87.70;;;;;;5093941;28;20024;-73
2021/07/21 02:30:20;;;;;;;7.13;4.10;;;15.20;87.90;;;;;;5078843;28;20016;-73
2021/07/21 02:33:06;;;;;;;7.30;4.13;;;15.20;88.00;;;;;;5075087;28;20033;-73
2021/07/21 02:35:32;;;;;;;6.82;4.90;;;15.20;88.10;;;;;;5091899;28;20049;-73
2021/07/21 02:37:59;;;;;;;6.05;4.43;;;15.20;88.40;;;;;;5092081;28;20028;-73
2021/07/21 02:40:25;;;;;;;5.97;4.55;;;15.20;88.60;;;;;;5074578;28;20044;-73
2021/07/21 02:42:52;;;;;;;6.63;4.90;;;15.20;88.80;;;;;;5073411;28;20020;-73
2021/07/21 02:45:17;;;;;;;6.50;4.90;;;15.20;88.90;;;;;;5074874;28;20055;-73
2021/07/21 02:47:43;;;;;;;8.05;4.78;;;15.10;89.00;;;;;;5086780;28;20052;-73
2021/07/21 02:50:11;;;;;;;6.10;4.57;;;15.10;89.20;;;;;;5094837;28;20081;-73
2021/07/21 02:52:51;;;;;;;6.38;4.60;;;15.10;89.30;;;;;;5082969;28;20031;-73
2021/07/21 02:55:22;;;;;;;;;;;15.10;89.40;;;;;;5075032;28;20090;-73
2021/07/21 02:57:50;;;;;;;5.78;3.50;;;15.00;89.40;;;;;;5074424;28;20366;-73
2021/07/21 03:00:21;;;;;;;4.70;3.60;;;14.90;89.90;;;;;;5074427;28;20039;-73
2021/07/21 03:02:49;;;;;;;5.65;4.43;;;14.90;90.00;;;;;;5074031;28;20024;-73
2021/07/21 03:05:18;;;;;;;6.22;4.20;;;14.90;90.10;;;;;;5091416;28;20027;-73
2021/07/21 03:07:50;;;;;;;5.43;3.78;;;14.90;90.20;;;;;;5092918;28;20515;-73
2021/07/21 03:10:16;;;;;;;6.10;3.92;;;14.90;90.20;;;;;;5094675;28;20047;-73
2021/07/21 03:13:07;;;;;;;6.78;3.97;;;14.90;90.30;;;;;;5093152;28;20541;-73
2021/07/21 03:15:35;;;;;;;6.80;4.03;;;14.90;90.20;;;;;;5094486;28;20063;-73
2021/07/21 03:18:02;;;;;;;5.32;4.07;;;14.90;90.40;;;;;;5094401;28;20055;-74
2021/07/21 03:20:29;;;;;;;7.72;5.22;;;14.90;90.40;;;;;;5094235;28;20024;-74
2021/07/21 03:22:58;;;;;;;6.88;4.97;;;14.90;90.40;;;;;;5092814;28;20024;-74
2021/07/21 03:25:25;;;;;;;7.07;4.63;;;14.80;90.40;;;;;;5094302;28;20110;-73
2021/07/21 03:27:53;;;;;;;7.95;5.20;;;14.80;90.50;;;;;;5094181;28;20093;-73
2021/07/21 03:30:19;;;;;;;8.80;4.82;;;14.80;90.50;;;;;;5094092;28;20058;-73
2021/07/21 03:32:46;;;;;;;7.45;4.78;;;14.70;90.60;;;;;;5094054;28;20052;-73
2021/07/21 03:35:13;;;;;;;8.15;3.65;;;14.70;90.70;;;;;;5094114;28;20107;-73
2021/07/21 03:37:45;;;;;;;8.90;3.30;;;14.70;90.80;;;;;;5091364;28;20134;-73
2021/07/21 03:40:11;;;;;;;4.00;2.60;;;14.70;90.90;;;;;;5073346;28;20068;-73
2021/07/21 03:42:38;;;;;;;3.20;2.38;;;14.60;90.90;;;;;;5072226;28;20389;-74
2021/07/21 03:45:07;;;;;;;4.35;2.30;;;14.60;90.90;;;;;;5073584;28;20462;-73
2021/07/21 03:47:33;;;;;;;;;;;14.60;91.00;;;;;;5073956;28;20023;-74
2021/07/21 03:50:00;;;;;;;4.47;2.10;;;14.50;90.90;;;;;;5073533;28;19905;-74
2021/07/21 03:52:27;;;;;;;3.60;2.28;;;14.50;91.20;;;;;;5083139;28;20493;-74
2021/07/21 03:54:53;;;;;;;2.95;2.25;;;14.50;91.30;;;;;;5093724;28;20040;-74
2021/07/21 03:57:20;;;;;;;4.57;3.25;;;14.50;91.30;;;;;;5093724;28;20024;-74
2021/07/21 03:59:46;;;;;;;3.55;2.90;;;14.50;91.30;;;;;;5093236;28;20039;-74
2021/07/21 04:02:12;;;;;;;5.38;3.33;;;14.50;91.30;;;;;;5091138;28;20028;-74
2021/07/21 04:04:44;;;;;;;6.88;3.53;;;14.50;91.40;;;;;;5092650;28;20012;-74
2021/07/21 04:07:13;;;;;;;4.97;3.38;;;14.50;91.40;;;;;;5092251;28;20017;-74
2021/07/21 04:09:39;;;;;;;5.72;3.42;;;14.50;91.50;;;;;;5092144;28;20028;-74
2021/07/21 04:12:07;;;;;;;5.85;3.63;;;14.50;91.50;;;;;;5091780;28;20554;-74
2021/07/21 04:14:33;;;;;;;4.10;3.13;;;14.50;91.50;;;;;;5091681;28;20063;-74
2021/07/21 04:17:00;;;;;;;6.05;3.90;;;14.50;91.60;;;;;;5093283;28;20089;-74
2021/07/21 04:19:26;;;;;;;5.18;3.63;;;14.50;91.60;;;;;;5093113;28;20032;-74
2021/07/21 04:21:53;;;;;;;6.20;4.47;;;14.50;91.70;;;;;;5086042;28;20031;-74
2021/07/21 04:24:20;;;;;;;6.80;4.63;;;14.50;91.70;;;;;;5092557;28;20077;-74
2021/07/21 04:26:47;;;;;;;5.57;4.50;;;14.50;91.80;;;;;;5091512;28;20043;-74
2021/07/21 04:29:19;;;;;;;7.72;4.53;;;14.50;91.80;;;;;;5091624;28;20023;-74
2021/07/21 04:31:47;;;;;;;7.50;4.38;;;14.50;91.80;;;;;;5091731;28;20089;-74
2021/07/21 04:34:14;;;;;;;6.13;4.28;;;14.50;91.90;;;;;;5091795;28;20027;-74
2021/07/21 04:36:41;;;;;;;8.13;4.82;;;14.50;91.90;;;;;;5091730;28;20077;-74
2021/07/21 04:39:08;;;;;;;7.97;5.30;;;14.50;92.00;;;;;;5077661;28;20033;-73
2021/07/21 04:41:35;;;;;;;7.15;5.28;;;14.50;92.00;;;;;;5072202;28;20043;-74
2021/07/21 04:44:02;;;;;;;8.15;5.40;;;14.50;92.10;;;;;;5071157;28;20119;-74
2021/07/21 04:46:30;;;;;;;8.05;4.90;;;14.60;92.50;;;;;;5071230;28;20024;-74
2021/07/21 04:48:57;;;;;;;7.07;5.32;;;14.60;92.20;;;;;;5071409;28;20031;-75
2021/07/21 04:51:23;;;;;;;6.65;4.55;;;14.60;92.20;;;;;;5073700;28;20506;-74
2021/07/21 04:53:54;;;;;;;7.50;5.03;;;14.60;92.20;;;;;;5091248;28;20024;-74
2021/07/21 04:56:19;;;;;;;7.40;4.65;;;14.70;92.50;;;;;;5092709;28;20173;-74
2021/07/21 04:58:45;;;;;;;6.47;4.50;;;14.60;92.30;;;;;;5092598;28;20085;-74
2021/07/21 05:01:14;;;;;;;7.18;5.03;;;14.70;92.30;;;;;;5091068;28;20039;-74
2021/07/21 05:03:40;;;;;;;7.13;4.57;;;14.70;92.40;;;;;;5092515;28;20027;-74
2021/07/21 05:06:06;;;;;;;6.88;4.43;;;14.70;92.40;;;;;;5092637;28;20032;-74
2021/07/21 05:08:31;;;;;;;6.47;4.57;;;14.70;92.50;;;;;;5091903;28;20021;-74
2021/07/21 05:10:57;;;;;;;6.97;4.30;;;14.70;92.50;;;;;;5091447;28;20020;-74
2021/07/21 05:13:23;;;;;;;6.18;4.50;;;14.70;92.60;;;;;;5096260;28;20031;-74
2021/07/21 05:15:49;;;;;;;7.35;5.00;;;14.80;92.60;;;;;;5096836;28;20119;-74
2021/07/21 05:18:15;;;;;;;7.10;4.55;;;14.80;92.60;;;;;;5096754;28;20111;-74
2021/07/21 05:20:41;;;;;;;6.80;5.10;;;14.80;92.60;;;;;;5096604;28;20496;-73
2021/07/21 05:23:07;;;;;;;6.20;4.43;;;14.90;92.60;;;;;;5095098;28;20032;-74
2021/07/21 05:25:35;;;;;;;9.05;4.85;;;14.90;92.60;;;;;;5096425;28;20077;-73
2021/07/21 05:28:03;;;;;;;6.70;4.40;;;15.00;92.70;;;;;;5096732;28;20020;-74
2021/07/21 05:30:29;;;;;;;7.70;4.85;;;15.00;92.70;;;;;;5095036;28;20385;-74
2021/07/21 05:32:54;;;;;;;8.25;4.53;;;14.90;92.90;;;;;;5096345;28;20027;-73
2021/07/21 05:35:20;;;;;;;6.03;3.90;;;14.90;92.90;;;;;;5095060;28;20035;-73
2021/07/21 05:37:45;;;;;;;5.75;4.40;;;15.00;93.00;;;;;;5091568;28;20020;-73
2021/07/21 05:40:11;;;;;;;7.07;4.55;;;15.00;93.10;;;;;;5092974;28;20493;-73
2021/07/21 05:42:36;;;;;;;8.43;4.68;;;15.00;93.10;;;;;;5092138;28;20028;-74
2021/07/21 05:45:04;;;;;;;9.20;5.25;;;15.10;93.10;;;;;;5078424;28;20048;-74
2021/07/21 05:47:29;;;;;;;5.78;4.78;;;15.10;93.10;;;;;;5076952;28;20074;-74
2021/07/21 05:49:55;;;;;;;7.78;4.50;;;15.20;93.20;;;;;;5075932;28;20029;-73
2021/07/21 05:52:20;;;;;;;7.07;4.32;;;15.30;93.20;;;;;;5084879;28;20034;-73
2021/07/21 05:54:46;;;;;;;7.57;5.05;;;15.30;93.20;;;;;;5095875;28;20443;-73
2021/07/21 05:57:11;;;;;;;7.57;5.15;;;15.40;93.20;;;;;;5094693;28;20120;-74
2021/07/21 05:59:37;;;;;;;8.15;5.15;;;15.50;93.30;;;;;;5094566;28;20032;-74
2021/07/21 06:02:04;;;;;;;8.55;5.75;;;15.50;93.40;;;;;;5095843;28;20016;-73
2021/07/21 06:04:29;;;;;;;9.23;6.40;;;15.60;93.40;;;;;;5095843;28;20024;-73
2021/07/21 06:06:55;;;;;;;7.78;6.25;;;15.70;93.60;;;;;;5095765;28;20047;-74
2021/07/21 06:09:20;;;;;;;8.68;5.47;;;15.80;93.70;;;;;;5093844;28;20024;-74
2021/07/21 06:11:46;;;;;;;6.80;4.80;;;15.80;93.70;;;;;;5094175;28;20408;-73
2021/07/21 06:14:11;;;;;;;7.38;4.45;;;15.90;93.70;;;;;;5095705;28;20074;-73
2021/07/21 06:16:37;;;;;;;8.82;5.25;;;16.00;93.50;;;;;;5095741;28;20142;-73
2021/07/21 06:19:06;;;;;;;10.35;7.20;;;16.00;93.40;;;;;;5094241;28;20111;-73
2021/07/21 06:21:32;;;;;;;8.52;6.25;;;16.10;93.60;;;;;;5095283;28;20023;-73
2021/07/21 06:23:58;;;;;;;9.65;7.18;;;16.10;93.70;;;;;;5095454;28;20028;-74
2021/07/21 06:26:24;;;;;;;8.82;6.22;;;16.20;94.10;;;;;;5092246;28;20032;-74
2021/07/21 06:28:49;;;;;;;9.63;6.65;;;16.30;93.80;;;;;;5083744;28;20020;-73
2021/07/21 06:31:16;;;;;;;9.70;6.47;;;16.30;93.80;;;;;;5074956;28;20477;-74
2021/07/21 06:33:42;;;;;;;11.68;6.72;;;16.40;93.90;;;;;;5073785;28;20028;-73
2021/07/21 06:36:07;;;;;;;9.00;6.78;;;16.40;94.00;;;;;;5074725;28;20024;-73
2021/07/21 06:38:33;;;;;;;10.07;7.05;;;16.50;94.00;;;;;;5095100;28;20071;-73
2021/07/21 06:41:03;;;;;;;7.85;5.90;;;16.50;94.00;;;;;;5093857;28;20048;-73
2021/07/21 06:43:28;;;;;;;10.65;7.32;;;16.60;94.10;;;;;;5094739;28;20583;-73
2021/07/21 06:45:54;;;;;;;11.32;8.65;;;16.70;94.10;;;;;;5092134;28;20032;-72
2021/07/21 06:48:20;;;;;;;11.45;8.00;;;16.80;94.20;;;;;;5094301;28;20024;-72
2021/07/21 06:50:45;;;;;;;12.20;8.63;;;16.90;94.10;;;;;;5092517;28;20024;-73
2021/07/21 06:53:11;;;;;;;10.88;7.80;;;16.90;94.00;;;;;;5094530;28;20489;-73
2021/07/21 06:55:36;;;;;;;10.57;7.80;;;17.00;93.90;;;;;;5094945;28;20064;-72
2021/07/21 06:58:03;;;;;;;8.77;6.10;;;17.10;93.70;;;;;;5094729;28;20423;-72
2021/07/21 07:00:29;;;;;;;10.32;6.70;;;17.20;93.60;;;;;;5084452;28;20028;-72
2021/07/21 07:02:54;;;;;;;10.38;7.38;;;17.30;93.40;;;;;;5072927;28;20109;-74
2021/07/21 07:05:20;;;;;;;8.23;6.40;;;17.30;93.30;;;;;;5078391;28;20512;-71
2021/07/21 07:07:45;;;;;;;13.25;7.70;;;17.40;93.20;;;;;;5093885;28;20031;-71
2021/07/21 07:10:15;;;;;;;10.55;6.38;;;17.50;93.10;;;;;;5091797;28;20056;-72
2021/07/21 07:12:41;;;;;;;11.63;7.63;;;17.60;93.00;;;;;;5075108;28;20024;-71
2021/07/21 07:15:07;;;;;;;7.45;6.03;;;17.70;92.90;;;;;;5085400;28;20050;-71
2021/07/21 07:17:33;;;;;;;8.60;5.45;;;17.80;92.80;;;;;;5073976;28;20450;-70
2021/07/21 07:19:59;;;;;;;10.10;6.07;;;17.90;92.60;;;;;;5073503;28;20033;-72
2021/07/21 07:22:26;;;;;;;10.77;6.30;;;18.00;92.50;;;;;;5073818;28;20043;-71
2021/07/21 07:24:52;;;;;;;8.07;5.55;;;18.10;92.40;;;;;;5091817;28;20048;-70
2021/07/21 07:27:17;;;;;;;9.27;6.13;;;18.20;92.20;;;;;;5093922;28;20078;-71
2021/07/21 07:29:43;;;;;;;7.57;5.78;;;18.30;92.00;;;;;;5093930;28;20054;-70
2021/07/21 07:32:09;;;;;;;7.38;5.60;;;18.50;91.90;;;;;;5090820;28;20032;-69
2021/07/21 07:34:34;;;;;;;6.97;4.75;;;18.60;91.70;;;;;;5072328;28;20375;-70
2021/07/21 07:37:00;;;;;;;6.80;4.95;;;18.80;91.50;;;;;;5072872;28;20024;-69
2021/07/21 07:39:25;;;;;;;10.35;5.35;;;18.90;91.30;;;;;;5073650;28;20060;-69
2021/07/21 07:41:51;;;;;;;8.48;5.25;;;19.10;91.10;;;;;;5073429;28;20082;-69
2021/07/21 07:44:17;;;;;;;7.95;5.90;;;19.20;90.90;;;;;;5073519;28;20439;-69
2021/07/21 07:46:43;;;;;;;9.32;5.18;;;19.30;90.70;;;;;;5072236;28;20024;-69
2021/07/21 07:49:09;;;;;;;7.10;5.38;;;19.50;90.60;;;;;;5073195;28;20180;-69
2021/07/21 07:51:35;;;;;;;8.10;5.22;;;19.60;90.30;;;;;;5074811;28;20024;-69
2021/07/21 07:54:04;;;;;;;6.85;4.90;;;19.70;90.10;;;;;;5092393;28;20032;-68
2021/07/21 07:56:32;;;;;;;6.13;4.45;;;19.90;89.80;;;;;;5093594;28;20434;-69
2021/07/21 07:58:58;;;;;;;7.97;5.45;;;20.00;89.30;;;;;;5093375;28;20047;-69
2021/07/21 08:01:24;;;;;;;9.23;6.47;;;20.10;88.50;;;;;;5073801;28;20390;-69
2021/07/21 08:03:50;;;;;;;8.60;5.78;;;20.20;87.50;;;;;;5073029;28;20070;-69
2021/07/21 08:06:15;;;;;;;10.55;6.50;;;20.30;87.30;;;;;;5073025;28;20037;-69
2021/07/21 08:08:41;;;;;;;10.77;7.53;;;20.30;85.80;;;;;;5073092;28;20390;-69
2021/07/21 08:11:09;;;;;;;7.47;5.43;;;20.40;84.80;;;;;;5072961;28;20027;-69
2021/07/21 08:13:34;;;;;;;6.60;4.93;;;20.50;84.90;;;;;;5072762;28;20478;-69
2021/07/21 08:16:00;;;;;;;7.35;4.65;;;20.60;84.70;;;;;;5072985;28;20099;-69
2021/07/21 08:18:26;;;;;;;8.00;5.38;;;20.80;84.40;;;;;;5072714;28;20024;-69
2021/07/21 08:20:51;;;;;;;6.03;4.65;;;20.90;84.10;;;;;;5071496;28;20086;-69
2021/07/21 08:23:17;;;;;;;6.35;4.60;;;21.00;84.00;;;;;;5072485;28;20482;-70
2021/07/21 08:25:44;;;;;;;7.72;4.90;;;21.10;83.40;;;;;;5072847;28;20029;-69
2021/07/21 08:28:11;;;;;;;6.80;4.82;;;21.00;82.90;;;;;;5071181;28;20017;-71
2021/07/21 08:30:38;;;;;;;7.28;5.57;;;21.10;82.80;;;;;;5072771;28;20024;-71
2021/07/21 08:33:04;;;;;;;9.00;6.20;;;21.10;81.50;;;;;;5072297;28;20036;-71
2021/07/21 08:35:31;;;;;;;6.95;4.82;;;21.10;79.90;;;;;;5072469;28;20066;-71
2021/07/21 08:38:01;;;;;;;7.43;5.10;;;21.10;80.10;;;;;;5076045;28;20433;-72
2021/07/21 08:40:28;;;;;;;6.57;4.30;;;21.20;79.50;;;;;;5087321;28;20135;-72
2021/07/21 08:42:54;;;;;;;5.80;4.00;;;21.20;79.70;;;;;;5070789;28;20025;-72
2021/07/21 08:45:20;;;;;;;5.68;4.45;;;21.30;79.70;;;;;;5071613;28;20078;-72
2021/07/21 08:47:46;;;;;;;6.47;4.90;;;21.40;78.50;;;;;;5072458;28;20477;-72
2021/07/21 08:50:13;;;;;;;6.80;4.78;;;21.40;76.60;;;;;;5072926;28;20035;-72
2021/07/21 08:52:39;;;;;;;8.02;4.72;;;21.40;74.30;;;;;;5075224;28;20039;-72
2021/07/21 08:55:11;;;;;;;6.40;4.82;;;21.50;73.60;;;;;;5075444;28;20548;-72
2021/07/21 08:57:38;;;;;;;7.13;4.60;;;21.50;72.80;;;;;;5092546;28;20035;-72
2021/07/21 09:00:15;;;;;;;6.72;4.25;;;21.60;72.10;;;;;;5090721;28;20020;-72
2021/07/21 09:02:41;;;;;;;6.28;4.50;;;21.70;72.00;;;;;;5092363;28;20028;-73
2021/07/21 09:05:09;;;;;;;5.43;3.38;;;21.70;70.60;;;;;;5090910;28;20024;-73
2021/07/21 09:07:36;;;;;;;5.82;3.90;;;21.80;71.10;;;;;;5082118;28;20086;-73
2021/07/21 09:10:07;;;;;;;6.88;4.38;;;21.80;69.70;;;;;;5071097;28;20025;-73
2021/07/21 09:12:33;;;;;;;6.45;3.17;;;21.90;69.30;;;;;;5071918;28;20025;-73
2021/07/21 09:14:59;;;;;;;5.10;3.83;;;21.90;69.50;;;;;;5072181;28;20036;-73
2021/07/21 09:17:26;;;;;;;4.88;3.45;;;22.00;69.10;;;;;;5071720;28;20545;-72
2021/07/21 09:19:52;;;;;;;5.65;3.63;;;22.10;68.60;;;;;;5070745;28;20025;-72
2021/07/21 09:22:23;;;;;;;5.65;3.45;;;22.20;69.20;;;;;;5070734;28;20032;-73
2021/07/21 09:25:16;;;;;;;6.90;4.95;;;22.30;69.10;;;;;;5070899;28;20020;-73
2021/07/21 09:27:48;;;;;;;5.15;3.72;;;22.30;66.50;;;;;;5071964;28;20025;-73
2021/07/21 09:30:19;;;;;;;5.85;3.42;;;22.30;66.80;;;;;;5083110;28;20032;-73
2021/07/21 09:32:52;;;;;;;4.70;3.80;;;22.40;67.00;;;;;;5072096;28;20020;-76
2021/07/21 09:35:18;;;;;;;6.43;4.15;;;22.50;66.70;;;;;;5071863;28;20029;-73
2021/07/21 09:37:44;;;;;;;6.95;4.32;;;22.60;65.60;;;;;;5075270;28;20106;-73
2021/07/21 09:40:10;;;;;;;5.93;4.07;;;22.60;64.20;;;;;;5091980;28;20246;-73
2021/07/21 09:42:37;;;;;;;6.63;4.15;;;22.60;64.50;;;;;;5092179;28;20020;-73
2021/07/21 09:45:14;;;;;;;5.95;4.20;;;22.60;64.10;;;;;;5091524;28;20028;-73
2021/07/21 09:47:59;;;;;;;4.93;3.55;;;22.80;64.30;;;;;;5090979;28;20111;-72
2021/07/21 09:50:28;;;;;;;4.50;3.15;;;22.90;64.30;;;;;;5092092;28;20039;-72
2021/07/21 09:52:55;;;;;;;6.20;4.22;;;22.90;64.40;;;;;;5076712;28;20025;-72
2021/07/21 09:55:23;;;;;;;4.72;3.40;;;23.00;62.60;;;;;;5070528;28;20029;-72
2021/07/21 09:58:10;;;;;;;4.70;3.33;;;23.00;62.50;;;;;;5075568;28;20017;-73
2021/07/21 10:00:40;;;;;;;5.95;4.18;;;23.10;62.10;;;;;;5094333;28;20446;-73
2021/07/21 10:03:21;;;;;;;4.93;3.58;;;23.10;60.50;;;;;;5092822;28;20099;-73
2021/07/21 10:05:59;;;;;;;5.18;3.45;;;23.10;60.60;;;;;;5093803;28;20103;-73
2021/07/21 10:08:25;;;;;;;5.85;3.85;;;23.20;61.50;;;;;;5095205;28;20027;-72
2021/07/21 10:10:51;;;;;;;5.28;3.90;;;23.30;61.70;;;;;;5095485;28;20024;-73
2021/07/21 10:13:17;;;;;;;5.07;3.80;;;23.40;61.10;;;;;;5095364;28;20081;-72
2021/07/21 10:15:45;;;;;;;7.43;5.07;;;23.40;61.20;;;;;;5093260;28;20073;-72
2021/07/21 10:18:16;;;;;;;7.15;4.93;;;23.50;60.90;;;;;;5087877;28;20474;-72
2021/07/21 10:20:43;;;;;;;5.78;4.03;;;23.50;61.20;;;;;;5085623;28;20485;-73
2021/07/21 10:23:09;;;;;;;5.15;4.18;;;23.50;61.40;;;;;;5094678;28;20370;-72
2021/07/21 10:25:36;;;;;;;6.47;4.78;;;23.70;61.30;;;;;;5092079;28;20023;-73
2021/07/21 10:28:03;;;;;;;8.00;4.07;;;23.70;61.00;;;;;;5095302;28;20485;-72
2021/07/21 10:30:30;;;;;;;5.07;3.92;;;23.80;60.90;;;;;;5095112;28;20115;-73
2021/07/21 10:32:57;;;;;;;5.75;3.78;;;23.90;60.80;;;;;;5093885;28;20396;-73
2021/07/21 10:35:24;;;;;;;4.70;3.33;;;24.00;60.50;;;;;;5095142;28;20020;-73
2021/07/21 10:37:50;;;;;;;4.75;3.70;;;24.20;59.90;;;;;;5084156;28;20073;-73
2021/07/21 10:40:18;;;;;;;4.50;3.17;;;24.30;59.70;;;;;;5093287;28;20581;-73
2021/07/21 10:42:45;;;;;;;5.85;4.20;;;24.40;59.60;;;;;;5094115;28;20085;-73
2021/07/21 10:45:16;;;;;;;4.90;3.92;;;24.40;58.30;;;;;;5093937;28;20095;-73
2021/07/21 10:47:49;;;;;;;5.10;3.17;;;24.50;58.30;;;;;;5082735;28;20493;-72
2021/07/21 10:50:39;;;;;;;5.30;3.35;;;24.50;58.10;;;;;;5074095;28;20063;-73
2021/07/21 10:59:21;;;;;;;4.50;2.85;;;25.00;57.60;;;;;;5087051;28;20039;-73
2021/07/21 11:01:52;;;;;;;6.18;3.47;;;25.10;57.50;;;;;;5093789;28;20024;-73
2021/07/21 11:04:20;;;;;;;4.10;3.05;;;25.20;56.80;;;;;;5094165;28;20016;-73
2021/07/21 11:06:48;;;;;;;4.90;3.65;;;25.20;56.70;;;;;;5094063;28;20020;-73
2021/07/21 11:09:23;;;;;;;4.75;3.40;;;25.10;56.20;;;;;;5091219;28;20039;-73
2021/07/21 11:11:52;;;;;;;4.85;3.70;;;25.20;56.50;;;;;;5093850;28;20020;-73
2021/07/21 11:14:23;;;;;;;3.55;2.90;;;25.40;56.40;;;;;;5093941;28;20024;-73
2021/07/21 11:16:52;;;;;;;4.57;3.42;;;25.60;56.10;;;;;;5094172;28;20361;-73
2021/07/21 11:19:41;;;;;;;4.85;3.78;;;25.70;55.80;;;;;;5090404;28;20107;-73
2021/07/21 11:22:08;;;;;;;4.38;3.67;;;25.70;55.20;;;;;;5089438;28;20024;-73
2021/07/21 11:25:00;;;;;;;4.63;3.15;;;25.80;55.30;;;;;;5093717;28;20024;-73
2021/07/21 11:27:57;;;;;;;5.03;2.85;;;25.90;55.20;;;;;;5083622;28;20023;-73
2021/07/21 11:30:52;;;;;;;6.95;3.88;;;26.20;55.10;;;;;;5079944;28;20028;-73
2021/07/21 11:33:55;;;;;;;4.82;3.78;;;26.20;54.30;;;;;;5084955;28;20044;-73
2021/07/21 11:36:40;;;;;;;3.97;3.20;;;26.40;54.10;;;;;;5092705;28;20166;-73
2021/07/21 11:39:07;;;;;;;4.32;3.13;;;26.50;54.00;;;;;;5083405;28;20055;-74
2021/07/21 11:41:45;;;;;;;6.05;3.20;;;26.80;54.20;;;;;;5093268;28;20120;-73
2021/07/21 11:44:19;;;;;;;7.03;4.18;;;27.00;53.80;;;;;;5090726;28;20070;-74
2021/07/21 11:46:49;;;;;;;6.13;4.45;;;27.10;52.30;;;;;;5072972;28;20101;-74
2021/07/21 11:49:22;;;;;;;5.85;4.78;;;27.00;52.70;;;;;;5071908;28;20052;-73
2021/07/21 11:51:52;;;;;;;4.68;3.65;;;26.90;53.00;;;;;;5086710;28;20028;-74
2021/07/21 11:54:22;;;;;;;5.93;4.28;;;27.20;53.60;;;;;;5086235;28;20025;-73
2021/07/21 11:56:48;;;;;;;5.18;4.40;;;27.10;52.80;;;;;;5093216;28;20059;-74
2021/07/21 11:59:14;;;;;;;5.10;4.43;;;27.20;53.00;;;;;;5085719;28;20071;-74
2021/07/21 12:01:40;;;;;;;5.85;4.57;;;27.10;51.90;;;;;;5075617;28;20024;-74
2021/07/21 12:04:05;;;;;;;4.95;4.20;;;27.20;51.80;;;;;;5072826;28;20028;-74
2021/07/21 12:06:31;;;;;;;7.47;5.00;;;27.30;51.70;;;;;;5073191;28;20497;-74
2021/07/21 12:08:57;;;;;;;5.18;3.90;;;27.30;52.00;;;;;;5073022;28;20028;-74
2021/07/21 12:11:24;;;;;;;6.07;4.07;;;27.30;52.10;;;;;;5073231;28;20102;-74
2021/07/21 12:14:05;;;;;;;5.00;3.90;;;27.50;51.90;;;;;;5071392;28;20031;-74
2021/07/21 12:16:40;;;;;;;5.90;4.30;;;27.60;52.00;;;;;;5080419;28;20056;-74
2021/07/21 12:19:06;;;;;;;5.25;4.63;;;27.60;51.60;;;;;;5087120;28;20027;-74
2021/07/21 12:21:34;;;;;;;6.47;4.18;;;27.70;51.30;;;;;;5071935;28;20017;-74
2021/07/21 12:24:05;;;;;;;4.95;3.47;;;28.00;51.10;;;;;;5072283;28;20017;-74
2021/07/21 12:26:48;;;;;;;5.85;4.78;;;28.30;51.40;;;;;;5072457;28;20047;-74
2021/07/21 12:29:23;;;;;;;6.05;4.90;;;28.60;50.60;;;;;;5080311;28;20358;-74
2021/07/21 12:32:06;;;;;;;5.82;4.75;;;28.40;50.20;;;;;;5088357;28;20583;-74
2021/07/21 12:34:32;;;;;;;7.25;4.88;;;28.70;50.50;;;;;;5092269;28;21192;-74
2021/07/21 12:36:58;;;;;;;5.32;4.53;;;28.70;50.10;;;;;;5092421;28;20024;-74
2021/07/21 12:39:29;;;;;;;5.22;4.22;;;28.70;49.80;;;;;;5085006;28;20028;-74
2021/07/21 12:42:04;;;;;;;4.30;3.75;;;28.80;50.10;;;;;;5072437;28;20049;-74
2021/07/21 12:44:36;;;;;;;5.32;3.55;;;29.10;50.00;;;;;;5054144;28;20063;-74
2021/07/21 12:47:32;;;;;;;4.07;3.60;;;29.40;50.30;;;;;;5072060;28;20020;-75
2021/07/21 12:50:09;;;;;;;3.83;3.03;;;29.60;50.00;;;;;;5088451;28;20116;-74
2021/07/21 12:52:42;;;;;;;4.38;3.65;;;29.80;50.00;;;;;;5090731;28;20027;-74
2021/07/21 12:55:11;;;;;;;4.68;4.18;;;29.80;50.10;;;;;;5090930;28;20116;-74
2021/07/21 12:57:45;;;;;;;5.40;3.67;;;30.00;50.00;;;;;;5090570;28;20031;-74
2021/07/21 13:00:20;;;;;;;4.47;3.90;;;30.10;49.70;;;;;;5086856;28;20060;-74
2021/07/21 13:03:01;;;;;;;4.55;4.10;;;30.30;49.70;;;;;;5071979;28;20039;-74